This is the latest recevied weather packets stored in our database for station/object G4MDP-13. If no packets are shown the sender has not sent any weather packets the latest 10 day(s).
| Time | Temp. | Humidity | Pressure | Rain* | Wind** | Luminosity | Snow |
|---|---|---|---|---|---|---|---|
| 1777628026 | 17.78° C | 46% | 1014.9 hPa | 0 mm | - | - | - |
| 1777627125 | 16.67° C | 46% | 1014.8 hPa | 0 mm | - | - | - |
| 1777626285 | 17.22° C | 46% | 1014.8 hPa | 0 mm | - | - | - |
| 1777626226 | 17.22° C | 45% | 1014.8 hPa | 0 mm | - | - | - |
| 1777625325 | 17.22° C | 45% | 1014.7 hPa | 0 mm | - | - | - |
| 1777624485 | 16.67° C | 47% | 1014.8 hPa | 0 mm | - | - | - |
| 1777624428 | 16.67° C | 46% | 1014.7 hPa | 0 mm | - | - | - |
| 1777624426 | 16.67° C | 46% | 1014.7 hPa | 0 mm | - | - | - |
| 1777623525 | 16.11° C | 47% | 1014.7 hPa | 0 mm | - | - | - |
| 1777622685 | 16.67° C | 46% | 1014.9 hPa | 0 mm | - | - | - |
| 1777622628 | 16.67° C | 46% | 1014.9 hPa | 0 mm | - | - | - |
| 1777622626 | 16.67° C | 46% | 1014.9 hPa | 0 mm | - | - | - |
| 1777621725 | 15.56° C | 46% | 1014.6 hPa | 0 mm | - | - | - |
| 1777620885 | 15.56° C | 49% | 1014.4 hPa | 0 mm | - | - | - |
| 1777620828 | 15.56° C | 49% | 1014.6 hPa | 0 mm | - | - | - |
| 1777620826 | 15.56° C | 49% | 1014.6 hPa | 0 mm | - | - | - |
| 1777619926 | 14.44° C | 51% | 1014.3 hPa | 0 mm | - | - | - |
| 1777619925 | 14.44° C | 51% | 1014.3 hPa | 0 mm | - | - | - |
| 1777619085 | 13.89° C | 51% | 1013.9 hPa | 0 mm | - | - | - |
| 1777619028 | 13.89° C | 51% | 1014.1 hPa | 0 mm | - | - | - |
| 1777619026 | 13.89° C | 51% | 1014.1 hPa | 0 mm | - | - | - |
| 1777618126 | 13.89° C | 50% | 1014.3 hPa | 0 mm | - | - | - |
| 1777618125 | 13.89° C | 50% | 1014.3 hPa | 0 mm | - | - | - |
| 1777617648 | 14.44° C | 50% | 1014.3 hPa | 0 mm | - | - | - |
| 1777617646 | 14.44° C | 50% | 1014.3 hPa | 0 mm | - | - | - |
* Rain latest hour (hover to see other rain measurements)
** Current wind speed in m/s (hover to see current wind gust speed)